createdAt,value
2017-10-05T08:36:52.255Z,937.54
2017-10-05T08:37:37.827Z,937.50
2017-10-05T08:38:38.151Z,937.51
2017-10-05T08:39:38.160Z,937.42
2017-10-05T08:41:15.338Z,937.44
2017-10-05T08:42:15.339Z,937.36
2017-10-05T08:43:15.351Z,937.38
2017-10-05T08:44:15.346Z,937.41
2017-10-05T08:45:15.361Z,937.36
2017-10-05T08:46:15.358Z,937.38
2017-10-05T11:35:32.594Z,934.91
2017-10-05T11:36:32.599Z,935.02
2017-10-05T11:37:32.605Z,934.87
2017-10-05T11:38:32.611Z,934.92
2017-10-05T11:39:32.619Z,934.90
2017-10-05T11:40:32.627Z,934.84
2017-10-05T11:41:32.635Z,934.83
2017-10-05T11:42:32.641Z,934.77
2017-10-05T11:43:32.649Z,934.79
2017-10-05T11:44:32.659Z,934.89
2017-10-05T11:45:32.668Z,934.74
2017-10-05T11:46:32.676Z,934.78
2017-10-05T11:47:32.685Z,934.66
2017-10-05T11:48:32.693Z,934.63
2017-10-05T11:49:32.704Z,934.71
2017-10-05T11:50:32.713Z,934.71
2017-10-05T11:51:32.722Z,934.81
2017-10-05T11:52:32.732Z,934.70
2017-10-05T11:53:32.742Z,934.84
2017-10-05T11:54:32.753Z,934.88
2017-10-05T11:55:32.762Z,934.87
2017-10-05T11:56:32.772Z,934.83
2017-10-05T11:57:32.783Z,934.86
2017-10-05T11:58:32.792Z,934.79
2017-10-05T11:59:32.803Z,934.79
2017-10-05T12:00:32.815Z,934.72
2017-10-05T12:01:32.825Z,934.80
2017-10-05T12:02:32.836Z,934.82
2017-10-05T12:03:32.845Z,934.84
2017-10-05T12:04:32.857Z,934.70
2017-10-05T12:05:32.866Z,934.82
2017-10-05T12:06:32.879Z,934.75
2017-10-05T12:07:32.889Z,934.73
2017-10-05T12:08:32.900Z,934.86
2017-10-05T12:09:32.911Z,934.84
2017-10-05T12:10:32.922Z,934.75
2017-10-05T12:11:32.937Z,934.76
2017-10-05T12:12:32.945Z,934.68
2017-10-05T12:13:32.956Z,934.63
2017-10-05T12:14:32.969Z,934.64
2017-10-05T12:15:32.980Z,934.75
2017-10-05T12:16:32.990Z,934.60
2017-10-05T12:17:33.001Z,934.60
2017-10-05T12:18:33.013Z,934.66
2017-10-05T12:19:33.025Z,934.51
2017-10-05T12:20:33.036Z,934.55
2017-10-05T12:21:33.052Z,934.53
2017-10-05T12:22:33.059Z,934.55
2017-10-05T12:23:33.071Z,934.50
2017-10-05T12:24:33.083Z,934.62
2017-10-05T12:25:33.095Z,934.51
2017-10-05T12:26:33.105Z,934.44
2017-10-05T12:27:33.118Z,934.48
2017-10-05T12:28:33.129Z,934.51
2017-10-05T12:29:33.142Z,934.53
2017-10-05T12:30:33.154Z,934.55
2017-10-05T12:31:33.164Z,934.64
2017-10-05T12:32:33.175Z,934.52
2017-10-05T12:33:33.187Z,934.55
2017-10-05T12:34:33.199Z,934.54
2017-10-05T12:35:33.211Z,934.44
2017-10-05T12:36:33.222Z,934.47
2017-10-05T12:37:33.234Z,934.36
2017-10-05T12:38:33.248Z,934.47
2017-10-05T12:39:33.261Z,934.41
2017-10-05T12:40:33.269Z,934.48
2017-10-05T12:41:33.283Z,934.47
2017-10-05T12:42:33.294Z,934.53
2017-10-05T12:43:33.305Z,934.50
2017-10-05T12:44:33.319Z,934.53
2017-10-05T12:45:33.330Z,934.52
2017-10-05T12:46:33.344Z,934.43
2017-10-05T12:47:33.354Z,934.58
2017-10-05T12:48:33.368Z,934.47
2017-10-05T12:49:33.380Z,934.50
2017-10-05T12:50:33.391Z,934.53
2017-10-05T12:51:33.403Z,934.45
2017-10-05T12:52:33.416Z,934.53
2017-10-05T12:53:33.428Z,934.57
2017-10-05T12:54:33.440Z,934.48
2017-10-05T12:55:33.455Z,934.51
2017-10-05T12:56:33.466Z,934.47
2017-10-05T12:57:33.478Z,934.46
2017-10-05T12:58:33.490Z,934.43
2017-10-05T12:59:33.504Z,934.44
2017-10-05T13:00:33.515Z,934.40
2017-10-05T13:01:33.533Z,934.44
2017-10-05T13:02:33.540Z,934.34
2017-10-05T13:03:33.552Z,934.38
2017-10-05T13:04:33.566Z,934.45
2017-10-05T13:05:33.577Z,934.39
2017-10-05T13:06:33.591Z,934.43
2017-10-05T13:07:33.603Z,934.38
2017-10-05T13:08:33.615Z,934.26
2017-10-05T13:09:33.628Z,934.32
2017-10-05T13:10:33.640Z,934.35
2017-10-05T13:11:33.650Z,934.39
2017-10-05T13:12:33.663Z,934.37
2017-10-05T13:13:33.676Z,934.33
2017-10-05T13:14:33.687Z,934.30
2017-10-05T13:15:33.698Z,934.30
2017-10-05T13:16:33.710Z,934.25
2017-10-05T13:17:33.724Z,934.23
2017-10-05T13:18:33.735Z,934.18
2017-10-05T13:19:33.747Z,934.35
2017-10-05T13:20:33.759Z,934.35
2017-10-05T13:21:33.770Z,934.24
2017-10-05T13:22:33.784Z,934.24
2017-10-05T13:23:33.795Z,934.29
2017-10-05T13:24:33.807Z,934.30
2017-10-05T13:25:33.819Z,934.28
2017-10-05T13:26:33.830Z,934.28
2017-10-05T13:27:33.841Z,934.28
2017-10-05T13:28:33.853Z,934.30
2017-10-05T13:29:33.867Z,934.30
2017-10-05T13:30:33.877Z,934.32
2017-10-05T13:31:33.888Z,934.28
2017-10-05T13:32:33.901Z,934.33
2017-10-05T13:33:33.913Z,934.18
2017-10-05T13:34:33.925Z,934.26
2017-10-05T13:35:33.936Z,934.25
2017-10-05T13:36:33.948Z,934.16
2017-10-05T13:37:33.961Z,934.19
2017-10-05T13:38:33.992Z,934.14
2017-10-05T13:39:33.984Z,934.12
2017-10-05T13:40:33.995Z,934.24
2017-10-05T13:41:34.008Z,934.15
2017-10-05T13:42:34.020Z,934.16
2017-10-05T13:43:34.030Z,934.21
2017-10-05T13:44:34.042Z,934.25
2017-10-05T13:45:34.054Z,934.21
2017-10-05T13:46:34.066Z,934.10
2017-10-05T13:47:34.084Z,934.19
2017-10-05T13:48:34.089Z,934.20
2017-10-05T13:49:34.101Z,934.15
2017-10-05T13:50:34.113Z,934.20
2017-10-05T13:51:34.127Z,934.15
2017-10-05T13:52:34.141Z,934.23
2017-10-05T13:53:34.152Z,934.19
2017-10-05T13:54:34.160Z,934.22
2017-10-05T13:55:34.173Z,934.12
2017-10-05T13:56:34.184Z,934.19
2017-10-05T13:57:34.197Z,934.40
2017-10-05T13:58:34.207Z,933.98
2017-10-05T13:59:34.219Z,934.13
2017-10-05T14:00:34.231Z,934.17
2017-10-05T14:01:34.242Z,934.13
2017-10-05T14:02:34.255Z,934.04
2017-10-05T14:03:34.266Z,934.16
2017-10-05T14:04:34.279Z,934.11
2017-10-05T14:05:34.292Z,934.05
2017-10-05T14:06:34.302Z,934.30
2017-10-05T14:07:34.313Z,933.94
2017-10-05T14:08:34.324Z,934.05
2017-10-05T14:09:34.336Z,934.16
2017-10-05T14:10:34.349Z,933.98
2017-10-05T14:11:34.363Z,934.07
2017-10-05T14:12:34.370Z,933.99
2017-10-05T14:13:34.382Z,934.08
2017-10-05T14:14:34.395Z,933.95
2017-10-05T14:15:34.405Z,934.00
2017-10-05T14:16:34.417Z,933.73
2017-10-05T14:17:34.429Z,933.94
2017-10-05T14:18:34.440Z,933.93
2017-10-05T14:19:34.451Z,933.88
2017-10-05T14:20:34.460Z,933.74
2017-10-05T14:21:34.473Z,933.81
2017-10-05T14:22:34.484Z,933.85
2017-10-05T14:23:34.494Z,933.73
2017-10-05T14:24:34.504Z,933.76
2017-10-05T14:25:34.515Z,933.79
2017-10-05T14:26:34.529Z,933.78
2017-10-05T14:27:34.538Z,933.90
2017-10-05T14:28:34.549Z,933.78
2017-10-05T14:29:34.559Z,933.78
2017-10-05T14:30:34.577Z,933.71
2017-10-05T14:31:34.581Z,933.75
2017-10-05T14:32:34.594Z,933.82
2017-10-05T14:33:34.603Z,933.64
2017-10-05T14:34:34.615Z,933.62
2017-10-05T14:35:34.626Z,933.69
2017-10-05T14:36:34.636Z,933.72
2017-10-05T14:37:34.647Z,933.54
2017-10-05T14:38:34.660Z,933.67
2017-10-05T14:39:34.669Z,933.53
2017-10-05T14:40:34.684Z,933.57
2017-10-05T14:41:34.692Z,933.61
2017-10-05T14:42:34.704Z,933.69
2017-10-05T14:43:34.725Z,933.58
2017-10-05T14:44:34.726Z,933.55
2017-10-05T14:45:34.735Z,933.61
2017-10-05T14:46:34.747Z,933.61
2017-10-05T14:47:34.781Z,933.57
2017-10-05T14:48:34.769Z,933.60
2017-10-05T14:49:34.781Z,933.77
2017-10-05T14:50:34.791Z,933.52
2017-10-05T14:51:34.802Z,933.53
2017-10-05T14:52:34.814Z,933.50
2017-10-05T14:53:34.824Z,933.57
2017-10-05T14:54:34.835Z,933.51
2017-10-05T14:55:34.846Z,933.45
2017-10-05T14:56:34.856Z,933.40
2017-10-05T14:57:34.867Z,933.57
2017-10-05T14:58:34.878Z,933.54
2017-10-05T14:59:34.888Z,933.53
2017-10-05T15:00:34.899Z,933.48
2017-10-05T15:01:34.910Z,933.47
2017-10-05T15:02:34.924Z,933.40
2017-10-05T15:03:34.929Z,933.41
2017-10-05T15:04:34.939Z,933.42
2017-10-05T15:05:34.950Z,933.40
2017-10-05T15:06:34.960Z,933.38
2017-10-05T15:07:34.968Z,933.41
2017-10-05T15:08:34.985Z,933.37
2017-10-05T15:09:34.988Z,933.38
2017-10-05T15:10:35.004Z,933.34
2017-10-05T15:11:35.006Z,933.38
2017-10-05T15:12:35.022Z,933.41
2017-10-05T15:13:35.027Z,933.29
2017-10-05T15:14:35.041Z,933.34
2017-10-05T15:15:35.046Z,933.28
2017-10-05T15:16:35.062Z,933.38
2017-10-05T15:17:35.065Z,933.32
2017-10-05T15:18:35.073Z,933.29
2017-10-05T15:19:35.083Z,933.24
2017-10-05T15:20:35.116Z,933.24
2017-10-05T15:21:35.100Z,933.26
2017-10-05T15:22:35.114Z,933.22
2017-10-05T15:23:35.118Z,933.14
2017-10-05T15:24:35.132Z,933.17
2017-10-05T15:25:35.136Z,933.16
2017-10-05T15:26:35.147Z,933.21
2017-10-05T15:27:35.155Z,933.26
2017-10-05T15:28:35.171Z,933.17
2017-10-05T15:29:35.173Z,933.14
2017-10-05T15:30:35.181Z,933.07
2017-10-05T15:31:35.188Z,933.13
2017-10-05T15:32:35.202Z,933.13
2017-10-05T15:33:35.206Z,933.09
2017-10-05T15:34:35.215Z,933.22
2017-10-05T15:35:35.223Z,933.21
2017-10-05T15:36:35.233Z,933.00
2017-10-05T15:37:35.241Z,933.16
2017-10-05T15:38:35.253Z,933.19
2017-10-05T15:39:35.258Z,933.11
2017-10-05T15:40:35.268Z,933.12
2017-10-05T15:41:35.276Z,933.08
2017-10-05T15:42:35.288Z,933.14
2017-10-05T15:43:35.292Z,933.11
2017-10-05T15:44:35.301Z,933.07
2017-10-05T15:45:35.309Z,933.08
2017-10-05T15:46:35.318Z,933.07
2017-10-05T15:47:35.324Z,932.98
2017-10-05T15:48:35.337Z,933.08
2017-10-05T15:49:35.343Z,932.93
2017-10-05T15:50:35.357Z,932.98
2017-10-05T15:51:35.359Z,932.95
2017-10-05T15:52:35.371Z,932.93
2017-10-05T15:53:35.378Z,932.77
2017-10-05T15:54:35.390Z,932.96
2017-10-05T15:55:35.394Z,932.92
2017-10-05T15:56:35.404Z,932.83
2017-10-05T15:57:35.409Z,932.84
2017-10-05T15:58:35.423Z,932.93
2017-10-05T15:59:35.425Z,932.88
2017-10-05T16:00:35.437Z,932.90
2017-10-05T16:01:35.442Z,932.89
2017-10-05T16:02:35.451Z,933.00
2017-10-05T16:03:35.458Z,932.92
2017-10-05T16:04:35.471Z,932.86
2017-10-05T16:05:35.473Z,932.85
2017-10-05T16:06:35.489Z,932.77
2017-10-05T16:07:35.488Z,932.85
2017-10-05T16:08:35.499Z,932.86
2017-10-05T16:09:35.506Z,932.84
2017-10-05T16:10:35.520Z,932.88
2017-10-05T16:11:35.522Z,932.85
2017-10-05T16:12:35.534Z,932.86
2017-10-05T16:13:35.536Z,932.99
2017-10-05T16:14:35.558Z,932.96
2017-10-05T16:15:35.552Z,932.98
2017-10-05T16:16:35.565Z,933.00
2017-10-05T16:17:35.569Z,933.00
2017-10-05T16:18:35.583Z,933.01
2017-10-05T16:19:35.583Z,933.06
2017-10-05T16:20:35.594Z,933.03
2017-10-05T16:21:35.600Z,933.09
2017-10-05T16:22:35.614Z,933.07
2017-10-05T16:23:35.615Z,933.00
2017-10-05T16:24:35.628Z,932.96
2017-10-05T16:25:35.630Z,933.02
2017-10-05T16:26:35.639Z,933.02
2017-10-05T16:27:35.646Z,933.01
2017-10-05T16:28:35.655Z,932.98
2017-10-05T16:29:35.661Z,932.99
2017-10-05T16:30:35.673Z,933.02
2017-10-05T16:31:35.676Z,932.95
2017-10-05T16:32:35.689Z,932.95
2017-10-05T16:33:35.692Z,932.96
2017-10-05T16:34:35.700Z,932.95
2017-10-05T16:35:35.706Z,933.00
2017-10-05T16:36:35.714Z,932.96
2017-10-05T16:37:35.722Z,932.92
2017-10-05T16:38:35.749Z,932.91
2017-10-05T16:39:35.736Z,932.99
2017-10-05T16:40:35.744Z,932.98
2017-10-05T16:41:35.752Z,932.99
2017-10-05T16:42:35.766Z,932.98
2017-10-05T16:43:35.766Z,933.05
2017-10-05T16:44:35.782Z,933.02
2017-10-05T16:45:35.782Z,933.04
2017-10-05T16:46:35.789Z,933.08
2017-10-05T16:47:35.797Z,933.05
2017-10-05T16:48:35.804Z,933.04
2017-10-05T16:49:35.812Z,933.08
2017-10-05T16:50:35.820Z,933.05
2017-10-05T16:51:35.826Z,932.97
2017-10-05T16:52:35.840Z,933.02
2017-10-05T16:53:35.841Z,932.91
2017-10-05T16:54:35.849Z,932.94
2017-10-05T16:55:35.854Z,932.91
2017-10-05T16:56:35.863Z,932.92
2017-10-05T16:57:35.870Z,932.84
2017-10-05T16:58:35.884Z,932.85
2017-10-05T16:59:35.883Z,932.91
2017-10-05T17:00:35.894Z,932.97
2017-10-05T17:01:35.900Z,932.98
2017-10-05T17:02:35.916Z,933.04
2017-10-05T17:03:35.914Z,933.04
2017-10-05T17:04:35.927Z,933.03
2017-10-05T17:05:35.928Z,933.06
2017-10-05T17:06:35.937Z,933.06
2017-10-05T17:07:35.941Z,933.05
2017-10-05T17:08:35.953Z,933.08
2017-10-05T17:09:35.957Z,933.13
2017-10-05T17:10:35.968Z,933.03
2017-10-05T17:11:35.972Z,933.16
2017-10-05T17:12:35.987Z,933.10
2017-10-05T17:13:35.987Z,933.15
2017-10-05T17:14:35.996Z,933.18
2017-10-05T17:15:35.999Z,933.22
2017-10-05T17:16:36.012Z,933.29
2017-10-05T17:17:36.014Z,933.24
2017-10-05T17:18:36.030Z,933.41
2017-10-05T17:19:36.027Z,933.27
2017-10-05T17:20:36.035Z,933.32
2017-10-05T17:21:36.045Z,933.31
2017-10-05T17:22:36.057Z,933.30
2017-10-05T17:23:36.059Z,933.26
2017-10-05T17:24:36.067Z,933.19
2017-10-05T17:25:36.097Z,933.20
2017-10-05T17:26:36.083Z,933.24
2017-10-05T17:27:36.084Z,933.20
2017-10-05T17:28:36.092Z,933.22
2017-10-05T17:29:36.100Z,933.25
2017-10-05T17:30:36.107Z,933.27
2017-10-05T17:31:36.118Z,933.34
2017-10-05T17:32:36.126Z,933.44
2017-10-05T17:33:36.128Z,933.46
2017-10-05T17:34:36.138Z,933.51
2017-10-05T17:35:36.143Z,933.48
2017-10-05T17:36:36.153Z,933.46
2017-10-05T17:37:36.157Z,933.49
2017-10-05T17:38:36.169Z,933.42
2017-10-05T17:39:36.171Z,933.35
2017-10-05T17:40:36.186Z,933.38
2017-10-05T17:41:36.184Z,933.40
2017-10-05T17:42:36.192Z,933.46
2017-10-05T17:43:36.199Z,933.48
2017-10-05T17:44:36.209Z,933.51
2017-10-05T17:45:36.214Z,933.56
2017-10-05T17:46:36.228Z,933.62
2017-10-05T17:47:36.228Z,933.60
2017-10-05T17:48:36.242Z,933.63
2017-10-05T17:49:36.241Z,933.59
2017-10-05T17:50:36.253Z,933.60
2017-10-05T17:51:36.254Z,933.60
2017-10-05T17:52:36.264Z,933.64
2017-10-05T17:53:36.270Z,933.72
2017-10-05T17:54:36.286Z,933.76
2017-10-05T17:55:36.284Z,933.78
2017-10-05T17:56:36.293Z,933.81
2017-10-05T17:57:36.299Z,933.84
2017-10-05T17:58:36.312Z,933.82
2017-10-05T17:59:36.313Z,933.87
2017-10-05T18:00:36.323Z,933.92
2017-10-05T18:01:36.327Z,933.96
2017-10-05T18:02:36.339Z,934.01
2017-10-05T18:03:36.339Z,934.05
2017-10-05T18:04:36.347Z,934.07
2017-10-05T18:05:36.357Z,934.00
2017-10-05T18:06:36.369Z,933.97
2017-10-05T18:07:36.367Z,933.94
2017-10-05T18:08:36.376Z,933.88
2017-10-05T18:09:36.383Z,933.99
2017-10-05T18:10:36.395Z,934.02
2017-10-05T18:11:36.397Z,934.16
2017-10-05T18:12:36.403Z,934.17
2017-10-05T18:13:36.410Z,934.26
2017-10-05T18:14:36.426Z,934.36
2017-10-05T18:15:36.424Z,934.48
2017-10-05T18:16:36.433Z,934.61
2017-10-05T18:17:36.440Z,934.62
2017-10-05T18:18:36.452Z,934.63
2017-10-05T18:19:36.452Z,934.64
2017-10-05T18:20:36.463Z,934.66
2017-10-05T18:21:36.467Z,934.73
2017-10-05T18:22:36.476Z,934.76
2017-10-05T18:23:36.491Z,934.79
2017-10-05T18:24:36.493Z,934.79
2017-10-05T18:25:36.495Z,934.83
2017-10-05T18:26:36.501Z,934.74
2017-10-05T18:27:36.508Z,934.76
2017-10-05T18:28:36.517Z,934.69
2017-10-05T18:29:36.527Z,934.87
2017-10-05T18:30:36.531Z,934.91
2017-10-05T18:31:36.535Z,935.04
2017-10-05T18:32:36.545Z,935.05
2017-10-05T18:33:36.553Z,935.07
2017-10-05T18:34:36.556Z,935.14
2017-10-05T18:35:36.562Z,935.15
2017-10-05T18:36:36.569Z,935.16
2017-10-05T18:37:36.574Z,935.27
2017-10-05T18:38:36.582Z,935.29
2017-10-05T18:39:36.587Z,935.39
2017-10-05T18:40:36.594Z,935.38
2017-10-05T18:41:36.601Z,935.39
2017-10-05T18:42:36.607Z,935.43
2017-10-05T18:43:36.611Z,935.42
2017-10-05T18:44:36.619Z,935.57
2017-10-05T18:45:36.627Z,935.59
2017-10-05T18:46:36.633Z,935.63
2017-10-05T18:47:36.637Z,935.74
2017-10-05T18:48:36.651Z,935.74
2017-10-05T18:49:36.651Z,935.77
2017-10-05T18:50:36.662Z,935.82
2017-10-05T18:51:36.663Z,935.88
2017-10-05T18:52:36.670Z,935.87
2017-10-05T18:53:36.674Z,936.00
2017-10-05T18:54:36.680Z,935.98
2017-10-05T18:55:36.686Z,936.00
2017-10-05T18:56:36.694Z,935.98
2017-10-05T18:57:36.698Z,936.03
2017-10-05T18:58:36.704Z,936.08
2017-10-05T18:59:36.709Z,936.08
2017-10-05T19:00:36.715Z,936.08
2017-10-05T19:01:36.725Z,936.20
2017-10-05T19:02:36.727Z,936.11
2017-10-05T19:03:36.732Z,936.17
2017-10-05T19:04:36.736Z,936.19
2017-10-05T19:05:36.742Z,936.28
2017-10-05T19:06:36.748Z,936.34
2017-10-05T19:07:36.752Z,936.30
2017-10-05T19:08:36.758Z,936.36
2017-10-05T19:09:36.764Z,936.36
2017-10-05T19:10:36.769Z,936.32
2017-10-05T19:11:36.774Z,936.34
2017-10-05T19:12:36.779Z,936.33
2017-10-05T19:13:36.784Z,936.38
2017-10-05T19:14:36.792Z,936.42
2017-10-05T19:15:36.798Z,936.38
2017-10-05T19:16:36.800Z,936.49
2017-10-05T19:17:36.805Z,936.48
2017-10-05T19:18:36.816Z,936.44
2017-10-05T19:19:36.815Z,936.46
2017-10-05T19:20:36.822Z,936.44
2017-10-05T19:21:36.825Z,936.48
2017-10-05T19:22:36.831Z,936.45
2017-10-05T19:23:36.840Z,936.43
2017-10-05T19:24:36.839Z,936.51
2017-10-05T19:25:36.844Z,936.51
2017-10-05T19:26:36.849Z,936.52
2017-10-05T19:27:36.853Z,936.60
2017-10-05T19:28:36.857Z,936.60
2017-10-05T19:29:36.862Z,936.64
2017-10-05T19:30:36.867Z,936.54
2017-10-05T19:31:36.872Z,936.48
2017-10-05T19:32:36.875Z,936.44
2017-10-05T19:33:36.879Z,936.51
2017-10-05T19:34:36.885Z,936.54
2017-10-05T19:35:36.888Z,936.52
2017-10-05T19:36:36.893Z,936.53
2017-10-05T19:37:36.897Z,936.57
2017-10-05T19:38:36.901Z,936.58
2017-10-05T19:39:36.905Z,936.56
2017-10-05T19:40:36.909Z,936.52
2017-10-05T19:41:36.913Z,936.56
2017-10-05T19:42:36.916Z,936.53
2017-10-05T19:43:36.927Z,936.46
2017-10-05T19:44:36.924Z,936.48
2017-10-05T19:45:36.928Z,936.53
2017-10-05T19:46:36.932Z,936.52
2017-10-05T19:47:36.935Z,936.50
2017-10-05T19:48:36.938Z,936.45
2017-10-05T19:49:36.942Z,936.46
2017-10-05T19:50:36.949Z,936.53
2017-10-05T19:51:36.948Z,936.52
2017-10-05T19:52:36.952Z,936.50
2017-10-05T19:53:36.956Z,936.49
2017-10-05T19:54:36.959Z,936.52
2017-10-05T19:55:36.963Z,936.51
2017-10-05T19:56:36.965Z,936.50
2017-10-05T19:57:36.968Z,936.51
2017-10-05T19:58:36.973Z,936.53
2017-10-05T19:59:36.975Z,936.46
2017-10-05T20:00:37.002Z,936.52
2017-10-05T20:01:36.982Z,936.52
2017-10-05T20:02:36.986Z,936.49
2017-10-05T20:03:36.988Z,936.49
2017-10-05T20:04:36.991Z,936.53
2017-10-05T20:05:36.995Z,936.56
2017-10-05T20:06:37.000Z,936.54
2017-10-05T20:07:37.001Z,936.55
2017-10-05T20:08:37.003Z,936.55
2017-10-05T20:09:37.007Z,936.53
2017-10-05T20:10:37.010Z,936.57
2017-10-05T20:11:37.012Z,936.57
2017-10-05T20:12:37.016Z,936.61
2017-10-05T20:13:37.019Z,936.56
2017-10-05T20:14:37.022Z,936.53
2017-10-05T20:15:37.024Z,936.48
2017-10-05T20:16:37.026Z,936.47
2017-10-05T20:17:37.029Z,936.55
2017-10-05T20:18:37.033Z,936.50
2017-10-05T20:19:37.035Z,936.43
2017-10-05T20:20:37.037Z,936.44
2017-10-05T20:21:37.040Z,936.42
2017-10-05T20:22:37.044Z,936.46
2017-10-05T20:23:37.045Z,936.44
2017-10-05T20:24:37.049Z,936.37
2017-10-05T20:25:37.050Z,936.41
2017-10-05T20:26:37.054Z,936.44
2017-10-05T20:27:37.056Z,936.40
2017-10-05T20:28:37.060Z,936.37
2017-10-05T20:29:37.060Z,936.33
2017-10-05T20:30:37.065Z,936.28
2017-10-05T20:31:37.066Z,936.29
2017-10-05T20:32:37.069Z,936.33
2017-10-05T20:33:37.073Z,936.40
2017-10-05T20:34:37.076Z,936.43
2017-10-05T20:35:37.080Z,936.37
2017-10-05T20:36:37.079Z,936.35
2017-10-05T20:37:37.082Z,936.34
2017-10-05T20:38:37.088Z,936.31
2017-10-05T20:39:37.090Z,936.31
2017-10-05T20:40:37.088Z,936.37
2017-10-05T20:41:37.093Z,936.39
2017-10-05T20:42:37.095Z,936.54
2017-10-05T20:43:37.097Z,936.75
2017-10-05T20:44:37.100Z,936.94
2017-10-05T20:45:37.104Z,937.01
2017-10-05T20:46:37.105Z,936.97
2017-10-05T20:47:37.107Z,936.99
2017-10-05T20:48:37.109Z,936.91
2017-10-05T20:49:37.117Z,937.02
2017-10-05T20:50:37.115Z,937.01
2017-10-05T20:51:37.122Z,937.09
2017-10-05T20:52:37.119Z,937.12
2017-10-05T20:53:37.122Z,937.16
2017-10-05T20:54:37.124Z,937.22
2017-10-05T20:55:37.125Z,937.30
2017-10-05T20:56:37.129Z,937.29
2017-10-05T20:57:37.136Z,937.37
2017-10-05T20:58:37.135Z,937.40
2017-10-05T20:59:37.134Z,937.38
2017-10-05T21:00:37.137Z,937.40
2017-10-05T21:01:37.139Z,937.35
2017-10-05T21:02:37.141Z,937.41
2017-10-05T21:03:37.142Z,937.37
2017-10-05T21:04:37.145Z,937.40
2017-10-05T21:05:37.147Z,937.44
2017-10-05T21:06:37.149Z,937.45
2017-10-05T21:07:37.150Z,937.44
2017-10-05T21:08:37.153Z,937.45
2017-10-05T21:09:37.154Z,937.46
2017-10-05T21:10:37.156Z,937.45
2017-10-05T21:11:37.156Z,937.50
2017-10-05T21:12:37.159Z,937.49
2017-10-05T21:13:37.160Z,937.54
2017-10-05T21:14:37.163Z,937.52
2017-10-05T21:15:37.163Z,937.50
2017-10-05T21:16:37.165Z,937.54
2017-10-05T21:17:37.167Z,937.57
2017-10-05T21:18:37.172Z,937.66
2017-10-05T21:19:37.170Z,937.63
2017-10-05T21:20:37.171Z,937.61
2017-10-05T21:21:37.174Z,937.61
2017-10-05T21:22:37.173Z,937.65
2017-10-05T21:23:37.176Z,937.67
2017-10-05T21:24:37.179Z,937.70
2017-10-05T21:25:37.179Z,937.78
2017-10-05T21:26:37.182Z,937.80
2017-10-05T21:27:37.181Z,937.85
2017-10-05T21:28:37.182Z,937.86
2017-10-05T21:29:37.184Z,937.87
2017-10-05T21:30:37.186Z,937.85
2017-10-05T21:31:37.187Z,937.83
2017-10-05T21:32:37.189Z,937.83
2017-10-05T21:33:37.191Z,937.85
2017-10-05T21:34:37.190Z,937.87
2017-10-05T21:35:37.192Z,937.86
2017-10-05T21:36:37.194Z,937.86
2017-10-05T21:37:37.195Z,937.87
2017-10-05T21:38:37.197Z,937.88
2017-10-05T21:39:37.198Z,937.89
2017-10-05T21:40:37.199Z,937.88
2017-10-05T21:41:37.200Z,937.89
2017-10-05T21:42:37.202Z,937.97
2017-10-05T21:43:37.203Z,937.98
2017-10-05T21:44:37.204Z,937.98
2017-10-05T21:45:37.205Z,938.00
2017-10-05T21:46:37.207Z,937.98
2017-10-05T21:47:37.208Z,938.01
2017-10-05T21:48:37.210Z,938.05
2017-10-05T21:49:37.209Z,938.08
2017-10-05T21:50:37.218Z,938.07
2017-10-05T21:51:37.212Z,938.13
2017-10-05T21:52:37.219Z,938.11
2017-10-05T21:53:37.218Z,938.13
2017-10-05T21:54:37.221Z,938.05
2017-10-05T21:55:37.218Z,938.00
2017-10-05T21:56:37.219Z,938.02
2017-10-05T21:57:37.222Z,938.05
2017-10-05T21:58:37.222Z,938.07
2017-10-05T21:59:37.224Z,938.11
2017-10-05T22:00:37.224Z,938.12
2017-10-05T22:01:37.227Z,938.12
2017-10-05T22:02:37.229Z,938.12
2017-10-05T22:03:37.229Z,938.13
2017-10-05T22:04:37.232Z,938.14
2017-10-05T22:05:37.231Z,938.16
2017-10-05T22:06:37.234Z,938.16
2017-10-05T22:07:37.235Z,938.20
2017-10-05T22:08:37.236Z,938.21
2017-10-05T22:09:37.237Z,938.20
2017-10-05T22:10:37.240Z,938.17
2017-10-05T22:11:37.240Z,938.19
2017-10-05T22:12:37.242Z,938.21
2017-10-05T22:13:37.243Z,938.19
2017-10-05T22:14:37.245Z,938.18
2017-10-05T22:15:37.245Z,938.17
2017-10-05T22:16:37.248Z,938.24
2017-10-05T22:17:37.248Z,938.35
2017-10-05T22:18:37.250Z,938.37
2017-10-05T22:19:37.251Z,938.46
2017-10-05T22:20:37.253Z,938.46
2017-10-05T22:21:37.254Z,938.49
2017-10-05T22:22:37.255Z,938.49
2017-10-05T22:23:37.255Z,938.54
2017-10-05T22:24:37.257Z,938.65
2017-10-05T22:25:37.259Z,938.71
2017-10-05T22:26:37.261Z,938.62
2017-10-05T22:27:37.261Z,938.57
2017-10-05T22:28:37.262Z,938.60
2017-10-05T22:29:37.264Z,938.63
2017-10-05T22:30:37.266Z,938.60
2017-10-05T22:31:37.267Z,938.53
2017-10-05T22:32:37.268Z,938.53
2017-10-05T22:33:37.271Z,938.60
2017-10-05T22:34:37.269Z,938.56
2017-10-05T22:35:37.270Z,938.55
2017-10-05T22:36:37.272Z,938.55
2017-10-05T22:37:37.274Z,938.59
2017-10-05T22:38:37.276Z,938.60
2017-10-05T22:39:37.276Z,938.60
2017-10-05T22:40:37.278Z,938.60
2017-10-05T22:41:37.279Z,938.63
2017-10-05T22:42:37.281Z,938.59
2017-10-05T22:43:37.289Z,938.50
2017-10-05T22:44:37.283Z,938.40
2017-10-05T22:45:37.285Z,938.30
2017-10-05T22:46:37.286Z,938.33
2017-10-05T22:47:37.287Z,938.35
2017-10-05T22:48:37.288Z,938.34
2017-10-05T22:49:37.290Z,938.37
2017-10-05T22:50:37.289Z,938.33
2017-10-05T22:51:37.291Z,938.31
2017-10-05T22:52:37.292Z,938.29
2017-10-05T22:53:37.293Z,938.26
2017-10-05T22:54:37.295Z,938.29
2017-10-05T22:55:37.296Z,938.29
2017-10-05T22:56:37.297Z,938.39
2017-10-05T22:57:37.298Z,938.40
2017-10-05T22:58:37.300Z,938.40
2017-10-05T22:59:37.306Z,938.39
2017-10-05T23:00:37.300Z,938.37
2017-10-05T23:01:37.303Z,938.35
2017-10-05T23:02:37.303Z,938.29
2017-10-05T23:03:37.303Z,938.26
2017-10-05T23:04:37.304Z,938.22
2017-10-05T23:05:37.307Z,938.19
2017-10-05T23:06:37.308Z,938.25
2017-10-05T23:07:37.309Z,938.11
2017-10-05T23:08:37.309Z,938.10
2017-10-05T23:09:37.308Z,938.02
2017-10-05T23:10:37.311Z,938.01
2017-10-05T23:11:37.312Z,938.01
2017-10-05T23:12:37.313Z,937.92
2017-10-05T23:13:37.315Z,937.90
2017-10-05T23:14:37.316Z,937.88
2017-10-05T23:15:37.316Z,937.92
2017-10-05T23:16:37.317Z,937.89
2017-10-05T23:17:37.318Z,937.92
2017-10-05T23:18:37.319Z,937.92
2017-10-05T23:19:37.319Z,937.94
2017-10-05T23:20:37.319Z,937.91
2017-10-05T23:21:37.321Z,937.89
2017-10-05T23:22:37.324Z,937.89
2017-10-05T23:23:37.323Z,937.83
2017-10-05T23:24:37.323Z,937.81
2017-10-05T23:25:37.326Z,937.78
2017-10-05T23:26:37.326Z,937.81
2017-10-05T23:27:37.327Z,937.89
2017-10-05T23:28:37.328Z,937.89
2017-10-05T23:29:37.329Z,937.93
2017-10-05T23:30:37.329Z,937.99
2017-10-05T23:31:37.329Z,938.10
2017-10-05T23:32:37.332Z,938.23
2017-10-05T23:33:37.333Z,938.32
2017-10-05T23:34:37.333Z,938.36
2017-10-05T23:35:37.334Z,938.35
2017-10-05T23:36:37.336Z,938.34
2017-10-05T23:37:37.336Z,938.36
2017-10-05T23:38:37.336Z,938.37
2017-10-05T23:39:37.336Z,938.38
2017-10-05T23:40:37.336Z,938.41
2017-10-05T23:41:37.338Z,938.39
2017-10-05T23:42:37.339Z,938.46
2017-10-05T23:43:37.339Z,938.48
2017-10-05T23:44:37.341Z,938.52
2017-10-05T23:45:37.341Z,938.53
2017-10-05T23:46:37.341Z,938.51
2017-10-05T23:47:37.346Z,938.51
2017-10-05T23:48:37.343Z,938.47
2017-10-05T23:49:37.343Z,938.44
2017-10-05T23:50:37.344Z,938.38
2017-10-05T23:51:37.344Z,938.38
2017-10-05T23:52:37.345Z,938.30
2017-10-05T23:53:37.346Z,938.31